Terminal Aerodrome Forecast
Issued by NWS Shreveport, LA

Home | Current Version | Previous Version | Text Only | Print | Product List | Glossary On
Versions: 1 2 3 4 5 6 7 8 9 10 11 12 13 14 15 16 17
474
FTUS44 KSHV 271746
TAFTYR
TAF
KTYR 271746Z 2718/2818 18014G22KT P6SM BKN040
     FM280100 18012G18KT P6SM SKC
     FM281000 17012KT P6SM BKN025
     FM281400 19012G20KT P6SM SCT035 OVC150=

USA.gov is the U.S. government's official web portal to all federal, state and local government web resources and services.